LFMU/BZR METAR and TAF weather

Enter ICAO airport designator
Station Type Date Time Source
LFMU METAR 2019/06/16 20:30 UTC NOAA

LFMU 162030Z AUTO 27007KT CAVOK 22/12 Q1016 NOSIG


Station Type Date Time Source
LFMU Decoded METAR 2019/06/16 20:30 UTC NOAA

Beziers / Vias, France (LFMU) 43-19N 003-21E
Jun 16, 2019 - 04:30 PM EDT / 2019.06.16 2030 UTC
Wind: from the W (270 degrees) at 8 MPH (7 KT):0
Visibility: greater than 7 mile(s):0
Temperature: 71 F (22 C)
Dew Point: 53 F (12 C)
Relative Humidity: 53%
Pressure (altimeter): 30.00 in. Hg (1016 hPa)
ob: LFMU 162030Z AUTO 27007KT CAVOK 22/12 Q1016 NOSIG
cycle: 20

Station Type Date Time Source
LFMU TAF 2019/06/16 20:39 UTC NOAA

TAF TAF LFMU 162030Z 1620/1715 CNL

Example: see airport list